createdAt,value
2018-10-18T00:00:59.001Z,18.70
2018-10-18T00:03:28.849Z,19.73
2018-10-18T00:05:59.319Z,20.30
2018-10-18T00:08:27.852Z,19.30
2018-10-18T00:10:57.315Z,19.67
2018-10-18T00:13:26.056Z,19.40
2018-10-18T00:15:55.703Z,19.40
2018-10-18T00:18:25.966Z,19.67
2018-10-18T00:20:59.015Z,21.00
2018-10-18T00:23:28.933Z,19.73
2018-10-18T00:25:59.865Z,19.00
2018-10-18T00:28:29.774Z,19.90
2018-10-18T00:30:59.508Z,19.27
2018-10-18T00:33:32.830Z,19.50
2018-10-18T00:36:03.449Z,19.73
2018-10-18T00:38:31.974Z,19.77
2018-10-18T00:41:00.744Z,20.43
2018-10-18T00:43:29.859Z,20.07
2018-10-18T00:46:00.258Z,19.77
2018-10-18T00:48:29.618Z,19.03
2018-10-18T00:50:58.764Z,20.17
2018-10-18T00:53:29.844Z,19.63
2018-10-18T00:55:59.538Z,19.47
2018-10-18T00:58:29.548Z,19.37
2018-10-18T01:00:58.937Z,19.17
2018-10-18T01:03:29.686Z,20.40
2018-10-18T01:05:59.345Z,21.20
2018-10-18T01:08:29.095Z,22.53
2018-10-18T01:10:59.558Z,21.53
2018-10-18T01:13:29.099Z,20.83
2018-10-18T01:15:58.993Z,21.60
2018-10-18T01:18:29.548Z,20.40
2018-10-18T01:21:00.983Z,20.40
2018-10-18T01:23:31.553Z,21.60
2018-10-18T01:26:03.187Z,20.00
2018-10-18T01:28:32.297Z,20.47
2018-10-18T01:31:01.934Z,20.00
2018-10-18T01:33:31.027Z,20.63
2018-10-18T01:36:01.546Z,19.20
2018-10-18T01:38:32.001Z,19.97
2018-10-18T01:41:04.923Z,20.10
2018-10-18T01:43:36.483Z,18.37
2018-10-18T01:46:07.016Z,19.87
2018-10-18T01:49:06.660Z,19.30
2018-10-18T01:51:35.800Z,18.80
2018-10-18T01:54:06.350Z,18.00
2018-10-18T01:56:36.903Z,18.73
2018-10-18T01:59:07.399Z,18.77
2018-10-18T02:01:36.673Z,20.40
2018-10-18T02:04:06.077Z,20.40
2018-10-18T02:06:34.825Z,21.30
2018-10-18T02:09:04.700Z,22.57
2018-10-18T02:11:35.749Z,20.90
2018-10-18T02:14:05.341Z,21.70
2018-10-18T02:16:35.513Z,21.67
2018-10-18T02:19:05.425Z,20.80
2018-10-18T02:21:34.720Z,21.70
2018-10-18T02:24:04.632Z,21.60
2018-10-18T02:26:34.339Z,20.87
2018-10-18T02:29:04.271Z,21.80
2018-10-18T02:31:34.304Z,20.60
2018-10-18T02:34:04.248Z,21.43
2018-10-18T02:36:34.389Z,20.13
2018-10-18T02:39:03.517Z,21.70
2018-10-18T02:41:32.679Z,21.80
2018-10-18T02:44:02.751Z,19.93
2018-10-18T02:46:32.152Z,20.30
2018-10-18T02:49:02.855Z,20.50
2018-10-18T02:51:32.841Z,20.07
2018-10-18T02:54:02.192Z,21.83
2018-10-18T02:56:32.279Z,21.73
2018-10-18T02:59:02.802Z,20.63
2018-10-18T03:01:32.247Z,21.13
2018-10-18T03:04:03.039Z,20.73
2018-10-18T03:06:32.649Z,22.07
2018-10-18T03:09:02.112Z,21.13
2018-10-18T03:11:32.803Z,20.37
2018-10-18T03:14:04.775Z,20.27
2018-10-18T03:16:34.954Z,20.70
2018-10-18T03:19:06.111Z,20.60
2018-10-18T03:21:34.988Z,20.33
2018-10-18T03:24:04.269Z,20.57
2018-10-18T03:26:32.784Z,21.47
2018-10-18T03:29:02.220Z,20.00
2018-10-18T03:31:31.983Z,20.50
2018-10-18T03:34:04.944Z,21.20
2018-10-18T03:36:34.384Z,22.40
2018-10-18T03:39:05.387Z,19.90
2018-10-18T03:41:34.637Z,20.00
2018-10-18T03:44:05.515Z,21.33
2018-10-18T03:46:36.081Z,22.77
2018-10-18T03:49:06.493Z,22.10
2018-10-18T03:51:36.255Z,20.20
2018-10-18T03:54:06.805Z,22.20
2018-10-18T03:56:36.399Z,21.73
2018-10-18T03:59:06.115Z,23.10
2018-10-18T04:01:35.387Z,21.60
2018-10-18T04:04:06.461Z,20.93
2018-10-18T04:06:37.870Z,22.93
2018-10-18T04:09:08.829Z,21.30
2018-10-18T04:11:40.777Z,24.47
2018-10-18T04:14:09.275Z,21.80
2018-10-18T04:16:38.783Z,22.10
2018-10-18T04:19:09.882Z,22.00
2018-10-18T04:21:40.856Z,20.43
2018-10-18T04:24:09.499Z,22.90
2018-10-18T04:26:37.993Z,21.03
2018-10-18T04:29:07.660Z,24.40
2018-10-18T04:31:37.793Z,20.90
2018-10-18T04:34:06.731Z,22.97
2018-10-18T04:36:35.446Z,21.63
2018-10-18T04:39:07.268Z,22.93
2018-10-18T04:41:37.147Z,22.90
2018-10-18T04:44:07.276Z,22.40
2018-10-18T04:46:37.667Z,20.77
2018-10-18T04:49:08.007Z,21.03
2018-10-18T04:51:38.385Z,24.07
2018-10-18T04:54:08.796Z,21.10
2018-10-18T04:56:39.387Z,22.70
2018-10-18T04:59:08.436Z,21.60
2018-10-18T05:01:39.921Z,19.77
2018-10-18T05:04:11.056Z,22.37
2018-10-18T05:06:42.195Z,22.80
2018-10-18T05:09:12.680Z,23.27
2018-10-18T05:11:42.329Z,21.07
2018-10-18T05:14:12.407Z,21.70
2018-10-18T05:19:42.332Z,22.03
2018-10-18T05:22:10.894Z,21.43
2018-10-18T05:24:39.744Z,21.67
2018-10-18T05:27:09.258Z,23.07
2018-10-18T05:30:12.165Z,22.00
2018-10-18T05:32:41.623Z,22.50
2018-10-18T05:35:11.858Z,21.53
2018-10-18T05:37:42.419Z,20.97
2018-10-18T05:40:11.398Z,21.83
2018-10-18T05:42:41.055Z,22.80
2018-10-18T05:45:10.092Z,22.33
2018-10-18T05:47:40.278Z,22.00
2018-10-18T05:50:10.616Z,21.63
2018-10-18T05:52:41.249Z,23.83
2018-10-18T05:55:12.329Z,22.77
2018-10-18T05:57:42.355Z,21.80
2018-10-18T06:00:17.143Z,22.30
2018-10-18T06:02:47.365Z,23.17
2018-10-18T06:05:17.680Z,21.70
2018-10-18T06:07:46.645Z,22.90
2018-10-18T06:10:27.566Z,22.63
2018-10-18T06:12:58.853Z,22.93
2018-10-18T06:15:28.783Z,23.70
2018-10-18T06:17:58.274Z,23.03
2018-10-18T06:20:27.972Z,20.63
2018-10-18T06:22:58.941Z,22.80
2018-10-18T06:25:29.587Z,22.00
2018-10-18T06:27:58.992Z,23.30
2018-10-18T06:30:28.675Z,23.30
2018-10-18T06:32:58.255Z,22.43
2018-10-18T06:35:26.747Z,23.40
2018-10-18T06:37:55.319Z,22.43
2018-10-18T06:40:24.576Z,22.90
2018-10-18T06:42:54.677Z,23.80
2018-10-18T06:45:25.073Z,22.60
2018-10-18T06:47:55.913Z,22.57
2018-10-18T06:50:24.567Z,23.30
2018-10-18T06:52:54.206Z,22.47
2018-10-18T06:55:24.213Z,23.67
2018-10-18T06:57:58.532Z,22.67
2018-10-18T07:00:28.076Z,23.43
2018-10-18T07:02:58.135Z,23.33
2018-10-18T07:05:26.784Z,25.30
2018-10-18T07:07:56.116Z,25.83
2018-10-18T07:10:26.668Z,24.10
2018-10-18T07:12:56.373Z,25.27
2018-10-18T07:15:25.480Z,26.60
2018-10-18T07:17:55.852Z,28.37
2018-10-18T07:20:27.239Z,24.20
2018-10-18T07:22:58.884Z,24.60
2018-10-18T07:25:29.704Z,25.40
2018-10-18T07:27:59.797Z,26.00
2018-10-18T07:30:30.098Z,25.90
2018-10-18T07:33:00.230Z,25.33
2018-10-18T07:35:30.922Z,25.50
2018-10-18T07:38:02.847Z,26.43
2018-10-18T07:40:32.809Z,29.73
2018-10-18T07:43:02.954Z,26.27
2018-10-18T07:45:32.066Z,27.50
2018-10-18T07:48:02.014Z,26.17
2018-10-18T07:50:31.154Z,26.93
2018-10-18T07:53:01.330Z,24.67
2018-10-18T07:55:30.779Z,30.73
2018-10-18T07:58:03.779Z,32.40
2018-10-18T08:00:33.593Z,33.10
2018-10-18T08:03:02.860Z,31.20
2018-10-18T08:05:34.406Z,30.80
2018-10-18T08:08:05.141Z,29.27
2018-10-18T08:10:35.067Z,31.17
2018-10-18T08:13:14.814Z,32.70
2018-10-18T08:15:44.668Z,33.07
2018-10-18T08:18:14.867Z,33.43
2018-10-18T08:20:44.548Z,32.57
2018-10-18T08:23:14.459Z,32.60
2018-10-18T08:25:43.619Z,32.00
2018-10-18T08:28:13.767Z,32.57
2018-10-18T08:30:44.541Z,31.23
2018-10-18T08:33:13.813Z,33.50
2018-10-18T08:35:43.132Z,33.70
2018-10-18T08:38:12.630Z,37.13
2018-10-18T08:40:42.347Z,33.30
2018-10-18T08:43:12.056Z,34.43
2018-10-18T08:45:42.643Z,32.50
2018-10-18T08:48:11.455Z,34.27
2018-10-18T08:50:41.026Z,32.97
2018-10-18T08:53:10.540Z,32.60
2018-10-18T08:55:40.819Z,31.10
2018-10-18T08:58:18.253Z,34.10
2018-10-18T09:00:47.237Z,33.13
2018-10-18T09:03:16.506Z,33.63
2018-10-18T09:05:48.036Z,33.93
2018-10-18T09:08:17.641Z,34.83
2018-10-18T09:10:47.140Z,34.13
2018-10-18T09:13:16.295Z,31.97
2018-10-18T09:15:46.694Z,31.87
2018-10-18T09:18:30.947Z,32.93
2018-10-18T09:21:01.763Z,31.37
2018-10-18T09:23:30.624Z,33.33
2018-10-18T09:27:02.291Z,29.67
2018-10-18T09:29:31.522Z,31.20
2018-10-18T09:32:03.649Z,29.97
2018-10-18T09:34:33.827Z,30.57
2018-10-18T09:37:03.875Z,31.40
2018-10-18T09:39:33.701Z,34.47
2018-10-18T09:42:03.262Z,33.13
2018-10-18T09:44:32.124Z,31.10
2018-10-18T09:47:01.459Z,32.03
2018-10-18T09:49:37.026Z,31.67
2018-10-18T09:52:06.788Z,33.00
2018-10-18T09:54:36.017Z,31.70
2018-10-18T09:57:05.884Z,34.10
2018-10-18T09:59:38.367Z,30.60
2018-10-18T10:02:13.342Z,29.23
2018-10-18T10:04:43.950Z,30.23
2018-10-18T10:07:15.689Z,30.10
2018-10-18T10:09:45.016Z,28.17
2018-10-18T10:12:14.568Z,29.60
2018-10-18T10:16:53.288Z,29.73
2018-10-18T10:19:24.590Z,30.30
2018-10-18T10:21:53.756Z,27.57
2018-10-18T10:24:24.003Z,27.80
2018-10-18T10:26:54.830Z,27.27
2018-10-18T10:29:24.133Z,30.30
2018-10-18T10:31:57.601Z,28.20
2018-10-18T10:34:29.094Z,29.30
2018-10-18T10:36:58.759Z,27.07
2018-10-18T10:39:27.797Z,29.77
2018-10-18T10:41:58.918Z,26.93
2018-10-18T10:44:29.953Z,27.43
2018-10-18T10:46:59.332Z,29.03
2018-10-18T10:49:28.985Z,31.47
2018-10-18T10:51:58.353Z,30.67
2018-10-18T10:57:03.886Z,30.33
2018-10-18T10:59:34.688Z,33.73
2018-10-18T11:02:05.934Z,31.80
2018-10-18T11:04:36.030Z,29.37
2018-10-18T11:07:06.443Z,32.90
2018-10-18T11:09:37.027Z,32.60
2018-10-18T11:12:07.896Z,33.00
2018-10-18T11:14:36.631Z,33.00
2018-10-18T11:17:05.391Z,31.60
2018-10-18T11:19:35.268Z,33.20
2018-10-18T11:22:05.835Z,35.60
2018-10-18T11:24:36.927Z,34.63
2018-10-18T11:27:06.090Z,32.20
2018-10-18T11:29:34.923Z,32.70
2018-10-18T11:32:03.661Z,32.67
2018-10-18T11:34:36.141Z,35.57
2018-10-18T11:39:44.253Z,31.90
2018-10-18T11:42:14.368Z,30.43
2018-10-18T11:44:44.997Z,30.40
2018-10-18T11:47:15.382Z,31.10
2018-10-18T11:49:44.482Z,29.33
2018-10-18T11:52:14.173Z,30.90
2018-10-18T11:54:42.998Z,32.70
2018-10-18T11:57:12.586Z,32.97
2018-10-18T11:59:42.413Z,28.77
2018-10-18T12:02:12.767Z,27.57
2018-10-18T12:04:43.340Z,28.43
2018-10-18T12:09:59.991Z,30.83
2018-10-18T12:12:28.555Z,31.80
2018-10-18T12:14:58.708Z,28.17
2018-10-18T12:17:29.625Z,29.57
2018-10-18T12:19:59.529Z,28.97
2018-10-18T12:22:29.205Z,31.47
2018-10-18T12:24:58.004Z,29.37
2018-10-18T12:27:30.017Z,29.90
2018-10-18T12:29:59.055Z,30.80
2018-10-18T12:32:31.153Z,26.10
2018-10-18T12:35:01.158Z,30.23
2018-10-18T12:37:30.269Z,30.00
2018-10-18T12:40:00.620Z,29.80
2018-10-18T12:42:31.200Z,27.20
2018-10-18T12:45:00.808Z,28.90
2018-10-18T12:47:31.275Z,29.33
2018-10-18T12:50:01.980Z,30.67
2018-10-18T12:52:31.884Z,28.23
2018-10-18T12:55:01.034Z,27.97
2018-10-18T12:57:30.032Z,24.27
2018-10-18T12:59:58.918Z,29.13
2018-10-18T13:02:27.913Z,27.00
2018-10-18T13:04:57.698Z,27.83
2018-10-18T13:07:27.004Z,29.47
2018-10-18T13:09:56.016Z,25.57
2018-10-18T13:12:25.329Z,29.10
2018-10-18T13:14:54.239Z,28.07
2018-10-18T13:17:24.165Z,27.93
2018-10-18T13:19:53.977Z,26.60
2018-10-18T13:22:22.582Z,26.93
2018-10-18T13:24:51.275Z,25.90
2018-10-18T13:27:21.813Z,26.57
2018-10-18T13:29:51.367Z,27.50
2018-10-18T13:32:22.186Z,22.93
2018-10-18T13:34:51.423Z,26.20
2018-10-18T13:37:20.741Z,26.90
2018-10-18T13:39:49.814Z,28.20
2018-10-18T13:42:20.872Z,26.73
2018-10-18T13:44:50.675Z,26.60
2018-10-18T13:47:20.460Z,24.80
2018-10-18T13:49:50.076Z,27.27
2018-10-18T13:52:20.403Z,25.20
2018-10-18T13:54:49.983Z,23.93
2018-10-18T13:57:20.145Z,24.20
2018-10-18T13:59:59.702Z,24.63
2018-10-18T14:02:28.690Z,23.63
2018-10-18T14:04:58.762Z,25.93
2018-10-18T14:07:28.436Z,23.00
2018-10-18T14:09:57.773Z,24.60
2018-10-18T14:12:27.394Z,24.83
2018-10-18T14:14:57.908Z,26.20
2018-10-18T14:17:26.918Z,24.63
2018-10-18T14:19:57.025Z,24.50
2018-10-18T14:22:26.684Z,24.00
2018-10-18T14:25:24.243Z,23.97
2018-10-18T14:27:53.914Z,19.67
2018-10-18T14:30:24.820Z,24.50
2018-10-18T14:32:54.340Z,23.27
2018-10-18T14:35:24.043Z,23.40
2018-10-18T14:37:55.565Z,25.73
2018-10-18T14:40:25.893Z,24.30
2018-10-18T14:42:55.352Z,18.50
2018-10-18T14:45:24.895Z,23.77
2018-10-18T14:47:53.592Z,23.57
2018-10-18T14:50:23.069Z,23.90
2018-10-18T14:52:52.094Z,23.20
2018-10-18T14:55:21.442Z,23.63
2018-10-18T14:57:52.599Z,22.93
2018-10-18T15:00:22.040Z,20.87
2018-10-18T15:02:50.544Z,20.73
2018-10-18T15:05:20.645Z,23.20
2018-10-18T15:07:49.943Z,23.80
2018-10-18T15:10:18.772Z,22.13
2018-10-18T15:12:48.459Z,22.27
2018-10-18T15:15:18.919Z,21.63
2018-10-18T15:17:48.531Z,22.57
2018-10-18T15:20:17.968Z,21.50
2018-10-18T15:22:48.555Z,21.30
2018-10-18T15:25:17.780Z,22.07
2018-10-18T15:27:47.375Z,20.60
2018-10-18T15:30:17.226Z,20.73
2018-10-18T15:32:47.299Z,19.63
2018-10-18T15:35:19.587Z,19.90
2018-10-18T15:37:48.440Z,20.17
2018-10-18T15:40:18.105Z,20.70
2018-10-18T15:42:47.525Z,20.47
2018-10-18T15:45:16.665Z,20.00
2018-10-18T15:47:46.227Z,20.03
2018-10-18T15:50:15.200Z,18.47
2018-10-18T15:52:44.448Z,19.90
2018-10-18T15:55:14.360Z,19.30
2018-10-18T15:57:44.958Z,21.17
2018-10-18T16:00:16.526Z,18.80
2018-10-18T16:02:45.788Z,17.93
2018-10-18T16:05:15.663Z,18.87
2018-10-18T16:07:45.828Z,17.50
2018-10-18T16:10:15.810Z,19.53
2018-10-18T16:12:45.809Z,17.53
2018-10-18T16:15:15.788Z,19.17
2018-10-18T16:17:44.735Z,19.53
2018-10-18T16:20:14.634Z,19.10
2018-10-18T16:22:47.104Z,17.50
2018-10-18T16:25:16.706Z,16.70
2018-10-18T16:27:46.519Z,18.87
2018-10-18T16:30:15.873Z,14.43
2018-10-18T16:32:44.695Z,18.17
2018-10-18T16:35:14.960Z,16.23
2018-10-18T16:37:45.095Z,16.10
2018-10-18T16:40:16.515Z,15.80
2018-10-18T16:42:47.177Z,16.13
2018-10-18T16:45:16.233Z,17.63
2018-10-18T16:47:46.336Z,17.20
2018-10-18T16:50:15.454Z,17.50
2018-10-18T16:52:44.716Z,17.30
2018-10-18T16:55:13.214Z,15.80
2018-10-18T16:57:43.649Z,16.83
2018-10-18T17:00:14.012Z,16.50
2018-10-18T17:02:45.077Z,17.60
2018-10-18T17:05:16.700Z,18.13
2018-10-18T17:07:46.401Z,16.90
2018-10-18T17:10:17.201Z,16.30
2018-10-18T17:12:46.649Z,16.57
2018-10-18T17:15:16.296Z,16.60
2018-10-18T17:17:44.983Z,17.83
2018-10-18T17:20:15.245Z,16.70
2018-10-18T17:22:45.970Z,17.33
2018-10-18T17:25:23.205Z,18.40
2018-10-18T17:27:52.073Z,16.80
2018-10-18T17:30:22.767Z,16.93
2018-10-18T17:32:53.788Z,16.40
2018-10-18T17:35:25.495Z,17.50
2018-10-18T17:37:55.866Z,18.50
2018-10-18T17:40:24.608Z,17.80
2018-10-18T17:42:54.520Z,19.10
2018-10-18T17:45:23.678Z,18.03
2018-10-18T17:47:54.426Z,18.93
2018-10-18T17:50:24.082Z,18.73
2018-10-18T17:52:54.422Z,17.90
2018-10-18T17:55:24.257Z,18.97
2018-10-18T17:57:52.815Z,19.37
2018-10-18T18:00:22.186Z,20.43
2018-10-18T18:02:51.632Z,19.77
2018-10-18T18:05:21.727Z,20.80
2018-10-18T18:07:52.608Z,20.53
2018-10-18T18:10:22.329Z,19.93
2018-10-18T18:12:51.760Z,20.07
2018-10-18T18:15:23.218Z,19.93
2018-10-18T18:17:52.268Z,18.80
2018-10-18T18:20:22.450Z,19.33
2018-10-18T18:22:52.699Z,20.80
2018-10-18T18:25:22.442Z,19.50
2018-10-18T18:27:52.668Z,21.77
2018-10-18T18:30:22.166Z,20.60
2018-10-18T18:32:51.426Z,18.43
2018-10-18T18:35:21.308Z,19.13
2018-10-18T18:37:53.355Z,19.40
2018-10-18T18:40:22.478Z,20.77
2018-10-18T18:42:54.056Z,20.07
2018-10-18T18:45:25.979Z,21.70
2018-10-18T18:47:55.500Z,20.47
2018-10-18T18:50:24.285Z,21.07
2018-10-18T18:52:54.371Z,21.07
2018-10-18T18:55:25.696Z,20.40
2018-10-18T18:57:54.881Z,21.57
2018-10-18T19:00:24.855Z,20.60
2018-10-18T19:02:53.380Z,20.27
2018-10-18T19:05:22.414Z,22.27
2018-10-18T19:07:53.744Z,20.90
2018-10-18T19:10:22.557Z,21.43
2018-10-18T19:12:53.051Z,22.57
2018-10-18T19:15:22.883Z,21.73
2018-10-18T19:17:51.769Z,21.33
2018-10-18T19:20:20.411Z,21.83
2018-10-18T19:22:51.504Z,21.73
2018-10-18T19:25:20.496Z,22.90
2018-10-18T19:27:49.053Z,22.83
2018-10-18T19:30:20.136Z,22.13
2018-10-18T19:32:50.194Z,23.80
2018-10-18T19:35:20.275Z,24.13
2018-10-18T19:37:50.364Z,24.93
2018-10-18T19:40:19.577Z,25.27
2018-10-18T19:42:50.251Z,24.20
2018-10-18T19:45:25.460Z,26.47
2018-10-18T19:47:55.144Z,25.40
2018-10-18T19:50:24.650Z,25.10
2018-10-18T19:52:56.382Z,27.13
2018-10-18T19:55:25.612Z,25.83
2018-10-18T19:57:56.897Z,27.67
2018-10-18T20:00:26.279Z,26.80
2018-10-18T20:02:55.080Z,26.40
2018-10-18T20:05:25.462Z,28.30
2018-10-18T20:07:54.659Z,27.13
2018-10-18T20:10:25.100Z,28.27
2018-10-18T20:12:53.930Z,29.10
2018-10-18T20:15:23.127Z,29.03
2018-10-18T20:17:53.794Z,28.40
2018-10-18T20:20:25.181Z,27.67
2018-10-18T20:22:54.498Z,26.43
2018-10-18T20:25:24.547Z,27.50
2018-10-18T20:27:54.404Z,29.87
2018-10-18T20:30:24.361Z,28.27
2018-10-18T20:32:55.165Z,30.23
2018-10-18T20:35:26.183Z,29.83
2018-10-18T20:37:55.868Z,27.50
2018-10-18T20:40:26.229Z,28.23
2018-10-18T20:42:54.758Z,28.73
2018-10-18T20:45:25.076Z,29.67
2018-10-18T20:47:54.300Z,28.00
2018-10-18T20:50:24.492Z,28.33
2018-10-18T20:52:56.245Z,28.20
2018-10-18T20:55:26.556Z,28.97
2018-10-18T20:57:55.084Z,28.53
2018-10-18T21:00:25.157Z,31.17
2018-10-18T21:02:55.779Z,30.30
2018-10-18T21:05:26.234Z,30.00
2018-10-18T21:07:58.338Z,32.50
2018-10-18T21:10:29.150Z,29.67
2018-10-18T21:12:59.701Z,29.90
2018-10-18T21:15:28.614Z,30.70
2018-10-18T21:17:59.042Z,31.10
2018-10-18T21:20:28.141Z,32.30
2018-10-18T21:22:57.775Z,31.80
2018-10-18T21:25:26.932Z,31.50
2018-10-18T21:27:56.127Z,34.07
2018-10-18T21:30:25.389Z,31.20
2018-10-18T21:32:53.945Z,32.30
2018-10-18T21:35:24.226Z,33.67
2018-10-18T21:37:53.790Z,34.97
2018-10-18T21:40:23.867Z,35.10
2018-10-18T21:42:54.799Z,34.10
2018-10-18T21:45:24.496Z,33.67
2018-10-18T21:47:55.301Z,35.90
2018-10-18T21:50:25.862Z,36.67
2018-10-18T21:52:54.758Z,32.97
2018-10-18T21:55:25.544Z,33.70
2018-10-18T21:57:55.573Z,35.33
2018-10-18T22:00:30.225Z,34.63
2018-10-18T22:02:59.869Z,35.60
2018-10-18T22:05:29.215Z,35.80
2018-10-18T22:07:58.880Z,36.63
2018-10-18T22:10:28.855Z,37.37
2018-10-18T22:12:58.119Z,33.83
2018-10-18T22:15:27.034Z,35.73
2018-10-18T22:17:59.068Z,35.10
2018-10-18T22:20:28.186Z,36.30
2018-10-18T22:22:57.730Z,34.60
2018-10-18T22:25:27.403Z,36.73
2018-10-18T22:27:56.564Z,38.00
2018-10-18T22:30:27.384Z,38.57
2018-10-18T22:32:56.711Z,37.57
2018-10-18T22:35:27.022Z,39.00
2018-10-18T22:37:58.804Z,37.03
2018-10-18T22:40:29.284Z,39.13
2018-10-18T22:42:59.632Z,38.73
2018-10-18T22:45:29.439Z,38.53
2018-10-18T22:47:59.913Z,40.53
2018-10-18T22:50:30.497Z,38.00
2018-10-18T22:53:00.104Z,36.73
2018-10-18T22:55:30.091Z,34.70
2018-10-18T22:57:59.275Z,40.23
2018-10-18T23:00:28.323Z,38.37
2018-10-18T23:03:03.750Z,37.13
2018-10-18T23:05:32.229Z,37.27
2018-10-18T23:08:02.053Z,36.10
2018-10-18T23:10:30.842Z,38.90
2018-10-18T23:12:59.560Z,37.70
2018-10-18T23:15:30.435Z,37.50
2018-10-18T23:18:00.953Z,38.83
2018-10-18T23:20:29.515Z,38.03
2018-10-18T23:22:58.845Z,37.03
2018-10-18T23:25:30.631Z,38.70
2018-10-18T23:27:59.961Z,37.80
2018-10-18T23:30:29.273Z,38.47
2018-10-18T23:32:58.096Z,35.23
2018-10-18T23:35:27.428Z,36.53
2018-10-18T23:37:55.947Z,38.50
2018-10-18T23:40:25.022Z,38.80
2018-10-18T23:42:54.574Z,38.83
2018-10-18T23:45:23.418Z,38.60
2018-10-18T23:47:54.449Z,41.40
2018-10-18T23:50:23.764Z,40.27
2018-10-18T23:52:55.453Z,37.33
2018-10-18T23:55:24.893Z,42.30
2018-10-18T23:57:55.075Z,39.70
